Time;durP1;ratioP1;P1;durP2;ratioP2;P2;SDS_P1;SDS_P2;PMS_P1;PMS_P2;Temp;Humidity;BMP_temperature;BMP_pressure;BME280_temperature;BME280_humidity;BME280_pressure;Samples;Min_cycle;Max_cycle;Signal;HPM_P1;HPM_P2
2021/11/03 17:22:35;;;;;;;78.70;29.50;;;;;;;7.88;79.92;100350.92;1719778;83;21075;-66
2021/11/03 17:25:05;;;;;;;65.10;26.35;;;;;;;7.87;80.08;100343.98;1698568;81;21044;-68
2021/11/03 17:27:34;;;;;;;60.92;25.70;;;;;;;7.87;80.22;100353.19;1731567;81;21041;-66
2021/11/03 17:30:10;;;;;;;58.90;27.20;;;;;;;7.89;80.31;100367.06;1733787;82;21025;-69
2021/11/03 17:32:38;;;;;;;76.40;25.80;;;;;;;7.89;80.33;100365.75;1733963;81;21571;-68
2021/11/03 17:35:09;;;;;;;64.67;27.02;;;;;;;7.90;80.38;100370.53;1744646;81;22409;-68
2021/11/03 17:37:35;;;;;;;110.57;27.45;;;;;;;7.91;80.49;100368.27;1705558;82;21298;-69
2021/11/03 17:40:03;;;;;;;129.70;26.17;;;;;;;7.92;80.59;100368.66;1751749;80;21087;-69
2021/11/03 17:42:34;;;;;;;87.60;28.73;;;;;;;7.94;80.63;100366.77;1739137;82;21056;-68
2021/11/03 17:45:01;;;;;;;86.35;25.92;;;;;;;7.94;80.71;100367.60;1699701;82;21092;-70
2021/11/03 17:47:33;;;;;;;90.03;22.70;;;;;;;7.93;80.74;100360.66;1704618;84;21867;-68
2021/11/03 17:50:04;;;;;;;123.10;22.87;;;;;;;7.94;80.76;100364.97;1704572;84;21016;-69
2021/11/03 17:52:33;;;;;;;103.25;21.62;;;;;;;7.95;80.78;100373.23;1707164;82;21048;-69
2021/11/03 17:55:00;;;;;;;101.15;20.37;;;;;;;7.95;80.85;100377.64;1734015;81;21034;-67
2021/11/03 17:57:37;;;;;;;108.55;19.52;;;;;;;7.95;80.98;100385.53;1736991;81;21016;-68
2021/11/03 18:00:10;;;;;;;87.50;19.42;;;;;;;7.90;81.02;100380.58;1774119;80;22446;-70
2021/11/03 18:02:38;;;;;;;116.37;19.60;;;;;;;7.88;81.10;100379.84;1779575;79;21019;-69
2021/11/03 18:05:05;;;;;;;69.37;18.12;;;;;;;7.87;81.13;100376.84;1771997;79;21051;-69
2021/11/03 18:07:34;;;;;;;79.53;19.67;;;;;;;7.87;81.13;100391.31;1744388;80;22132;-70
2021/11/03 18:10:03;;;;;;;63.52;20.30;;;;;;;7.85;81.09;100398.47;1725137;81;21431;-70
2021/11/03 18:12:32;;;;;;;73.75;19.42;;;;;;;7.84;81.02;100400.73;1729411;80;21839;-69
2021/11/03 18:14:59;;;;;;;71.37;17.87;;;;;;;7.79;80.97;100399.34;1754114;79;21123;-69
2021/11/03 18:17:31;;;;;;;87.75;17.40;;;;;;;7.75;80.97;100401.35;1766131;78;21403;-71
2021/11/03 18:19:57;;;;;;;81.82;17.12;;;;;;;7.72;81.08;100406.35;1773458;79;21087;-69
2021/11/03 18:22:24;;;;;;;71.12;16.85;;;;;;;7.69;81.05;100405.70;1770503;78;21048;-71
2021/11/03 18:24:51;;;;;;;56.42;17.02;;;;;;;7.68;81.05;100415.84;1752615;80;21808;-68
2021/11/03 18:27:27;;;;;;;48.52;16.73;;;;;;;7.62;81.03;100417.08;1705454;80;21035;-70
2021/11/03 18:30:01;;;;;;;34.00;14.98;;;;;;;7.56;81.00;100415.35;1748249;81;21061;-70
2021/11/03 18:32:26;;;;;;;56.45;16.05;;;;;;;7.52;81.01;100416.01;1763274;80;21074;-71
2021/11/03 18:34:54;;;;;;;36.23;15.38;;;;;;;7.46;81.03;100418.59;1750685;80;21012;-71
2021/11/03 18:37:22;;;;;;;45.60;16.02;;;;;;;7.43;81.10;100407.41;1745691;80;21817;-70
2021/11/03 18:39:48;;;;;;;44.67;15.88;;;;;;;7.43;81.15;100425.37;1742668;80;21060;-70
2021/11/03 18:42:24;;;;;;;48.10;15.15;;;;;;;7.40;81.18;100420.29;1730055;80;21008;-67
2021/11/03 18:44:52;;;;;;;55.15;14.58;;;;;;;7.38;81.23;100431.38;1743670;80;21422;-71
2021/11/03 18:47:23;;;;;;;37.95;14.10;;;;;;;7.35;81.28;100430.27;1710543;80;21600;-69
2021/11/03 18:49:50;;;;;;;55.17;17.98;;;;;;;7.33;81.33;100426.87;1740707;80;22438;-70
2021/11/03 18:52:27;;;;;;;61.05;20.92;;;;;;;7.31;81.35;100434.02;1759761;80;21540;-66
2021/11/03 18:55:05;;;;;;;54.42;19.52;;;;;;;7.27;81.46;100438.28;1744054;80;21514;-69
2021/11/03 18:57:36;;;;;;;27.98;14.15;;;;;;;7.25;81.55;100450.20;1707548;82;21063;-69
2021/11/03 19:00:11;;;;;;;39.20;13.85;;;;;;;7.25;81.52;100446.73;1734969;81;21029;-69
2021/11/03 19:02:38;;;;;;;26.05;11.68;;;;;;;7.20;81.55;100452.27;1738400;82;21782;-69
2021/11/03 19:05:05;;;;;;;62.70;11.30;;;;;;;7.17;81.61;100463.83;1736556;80;21016;-67
2021/11/03 19:07:32;;;;;;;36.38;11.55;;;;;;;7.14;81.65;100471.91;1738347;80;21068;-70
2021/11/03 19:09:58;;;;;;;43.00;10.95;;;;;;;7.12;81.69;100475.55;1743524;80;21051;-69
2021/11/03 19:12:30;;;;;;;90.40;12.35;;;;;;;7.10;81.73;100485.31;1713551;80;21117;-68
2021/11/03 19:14:59;;;;;;;73.42;11.90;;;;;;;7.10;81.81;100491.88;1728050;80;21870;-68
2021/11/03 19:17:26;;;;;;;67.35;11.63;;;;;;;7.08;81.84;100495.92;1743039;79;21002;-68
2021/11/03 19:19:53;;;;;;;65.37;11.63;;;;;;;7.06;81.89;100499.59;1679598;84;20998;-67
2021/11/03 19:22:32;;;;;;;71.57;12.95;;;;;;;7.03;81.95;100497.14;1670414;83;21057;-67
2021/11/03 19:25:01;;;;;;;76.30;15.38;;;;;;;7.03;82.04;100489.26;1699614;81;21094;-68
2021/11/03 19:27:28;;;;;;;83.22;14.18;;;;;;;7.03;82.08;100499.30;1705354;81;21884;-68
2021/11/03 19:29:59;;;;;;;50.98;14.10;;;;;;;7.04;82.13;100504.08;1705161;83;21032;-67
2021/11/03 19:32:29;;;;;;;95.90;13.68;;;;;;;7.04;82.12;100514.11;1710836;82;21043;-66
2021/11/03 19:35:00;;;;;;;63.80;13.88;;;;;;;7.02;82.12;100513.84;1665122;83;21595;-66
2021/11/03 19:37:38;;;;;;;87.62;14.63;;;;;;;7.01;82.17;100517.41;1709317;81;21110;-68
2021/11/03 19:40:20;;;;;;;71.62;19.70;;;;;;;7.00;82.19;100527.07;1675258;83;21841;-68
2021/11/03 19:42:47;;;;;;;71.37;15.90;;;;;;;6.99;82.25;100528.48;1682357;83;21093;-66
2021/11/03 19:45:16;;;;;;;69.10;15.58;;;;;;;6.98;82.23;100522.86;1730837;81;21508;-68
2021/11/03 19:47:45;;;;;;;56.42;15.13;;;;;;;6.95;82.21;100531.78;1755359;80;21045;-67
2021/11/03 19:50:12;;;;;;;69.40;16.35;;;;;;;6.94;82.19;100539.73;1777285;79;20989;-67
2021/11/03 19:52:39;;;;;;;100.00;17.95;;;;;;;6.89;82.12;100543.49;1779389;78;21847;-67
2021/11/03 19:55:07;;;;;;;63.48;16.90;;;;;;;6.84;82.05;100537.66;1782971;80;20936;-67
2021/11/03 19:57:34;;;;;;;86.72;22.58;;;;;;;6.81;82.05;100537.02;1783327;80;21047;-67
2021/11/03 20:00:03;;;;;;;79.37;19.20;;;;;;;6.77;82.10;100539.00;1782783;78;21004;-67
2021/11/03 20:02:31;;;;;;;66.85;17.27;;;;;;;6.77;82.14;100531.59;1780576;78;21076;-66
2021/11/03 20:05:00;;;;;;;76.57;17.82;;;;;;;6.77;82.14;100537.69;1776813;80;21862;-69
2021/11/03 20:07:32;;;;;;;64.10;20.85;;;;;;;6.77;82.16;100535.06;1734370;80;21435;-67
2021/11/03 20:10:00;;;;;;;36.30;18.17;;;;;;;6.77;82.16;100550.81;1731310;80;21115;-68
2021/11/03 20:12:26;;;;;;;47.53;19.65;;;;;;;6.77;82.20;100556.53;1738958;80;21071;-69
2021/11/03 20:14:59;;;;;;;55.00;21.17;;;;;;;6.72;82.12;100565.14;1762077;78;21027;-68
2021/11/03 20:17:35;;;;;;;66.20;20.62;;;;;;;6.68;82.08;100571.52;1785580;78;21726;-67
2021/11/03 20:20:23;;;;;;;55.98;21.25;;;;;;;6.65;82.11;100575.63;1756951;80;21000;-70
2021/11/03 20:22:50;;;;;;;92.27;35.45;;;;;;;6.66;82.14;100584.75;1772234;79;21047;-67
2021/11/03 20:25:21;;;;;;;168.07;79.25;;;;;;;6.64;82.08;100580.03;1712080;83;21032;-67
2021/11/03 20:27:48;;;;;;;149.20;58.33;;;;;;;6.60;82.09;100589.87;1761465;78;21522;-67
2021/11/03 20:30:22;;;;;;;84.80;40.60;;;;;;;6.57;82.09;100590.54;1767293;78;21851;-69
2021/11/03 20:32:54;;;;;;;91.02;40.50;;;;;;;6.57;82.10;100601.88;1776658;79;21013;-66
2021/11/03 20:35:35;;;;;;;44.73;24.70;;;;;;;6.54;82.08;100602.04;1774770;78;21019;-67
2021/11/03 20:38:06;;;;;;;47.00;27.05;;;;;;;6.51;82.03;100609.26;1789882;78;21013;-66
2021/11/03 20:40:34;;;;;;;75.72;26.40;;;;;;;6.46;82.03;100603.42;1809368;79;20996;-65
2021/11/03 20:43:00;;;;;;;71.02;31.45;;;;;;;6.43;82.02;100600.98;1789579;78;21784;-63
2021/11/03 20:45:31;;;;;;;58.02;29.85;;;;;;;6.42;82.05;100604.55;1766629;78;21299;-66
2021/11/03 20:48:03;;;;;;;72.42;29.20;;;;;;;6.39;82.02;100603.42;1773035;78;21435;-67
2021/11/03 20:50:38;;;;;;;59.18;27.98;;;;;;;6.35;82.01;100605.83;1751863;78;21065;-66
2021/11/03 20:53:18;;;;;;;78.97;32.78;;;;;;;6.32;82.06;100606.86;1769766;78;21133;-67
2021/11/03 20:55:48;;;;;;;67.15;28.38;;;;;;;6.29;82.06;100613.14;1778673;78;21840;-67
2021/11/03 20:58:19;;;;;;;68.70;28.27;;;;;;;6.24;82.07;100603.36;1781374;78;21060;-67
2021/11/03 21:00:47;;;;;;;53.42;26.77;;;;;;;6.20;82.06;100607.11;1771511;79;21468;-68
2021/11/03 21:03:14;;;;;;;52.60;24.77;;;;;;;6.19;82.10;100605.89;1806714;79;21086;-68
2021/11/03 21:05:44;;;;;;;71.33;24.02;;;;;;;6.16;82.09;100606.89;1804891;78;21051;-68
2021/11/03 21:08:11;;;;;;;60.30;24.60;;;;;;;6.14;82.13;100609.23;1760838;80;22616;-68
2021/11/03 21:10:42;;;;;;;44.60;22.80;;;;;;;6.11;82.11;100608.95;1759963;78;20990;-67
2021/11/03 21:13:10;;;;;;;43.52;21.95;;;;;;;6.08;82.06;100606.51;1776356;78;21402;-68
2021/11/03 21:15:39;;;;;;;49.23;24.60;;;;;;;6.02;82.07;100602.45;1772827;78;20992;-70
2021/11/03 21:18:08;;;;;;;57.15;30.02;;;;;;;5.99;82.10;100593.92;1771750;78;20952;-69
2021/11/03 21:20:35;;;;;;;53.92;23.22;;;;;;;5.99;82.11;100596.55;1768677;78;21853;-67
2021/11/03 21:23:02;;;;;;;42.85;23.00;;;;;;;5.98;82.10;100594.83;1806119;78;21000;-67
2021/11/03 21:25:30;;;;;;;58.60;23.95;;;;;;;5.95;82.05;100589.30;1809370;79;21083;-67
2021/11/03 21:28:01;;;;;;;73.22;33.85;;;;;;;5.93;81.99;100596.87;1807917;79;20968;-69
2021/11/03 21:30:31;;;;;;;80.77;40.80;;;;;;;5.91;81.98;100594.81;1775308;79;21523;-68
2021/11/03 21:33:07;;;;;;;100.02;45.12;;;;;;;5.89;81.93;100590.10;1778455;80;21858;-68
2021/11/03 21:36:08;;;;;;;101.82;51.70;;;;;;;5.86;81.89;100594.19;1776000;79;21023;-67
2021/11/03 21:38:36;;;;;;;62.75;35.20;;;;;;;5.86;81.87;100592.87;1763306;79;21024;-66
2021/11/03 21:41:03;;;;;;;43.35;26.52;;;;;;;5.81;81.77;100598.86;1772628;80;20992;-67
2021/11/03 21:43:30;;;;;;;31.02;20.75;;;;;;;5.78;81.73;100604.25;1775523;80;21448;-68
2021/11/03 21:45:57;;;;;;;28.27;16.90;;;;;;;5.75;81.67;100608.73;1782446;80;21828;-68
2021/11/03 21:48:28;;;;;;;35.33;17.95;;;;;;;5.71;81.59;100624.27;1759480;79;20988;-68
2021/11/03 21:50:55;;;;;;;40.90;18.17;;;;;;;5.65;81.55;100625.06;1747883;80;21423;-68
2021/11/03 21:53:22;;;;;;;30.95;17.57;;;;;;;5.60;81.54;100621.86;1715921;83;21004;-66
2021/11/03 21:55:51;;;;;;;52.25;17.73;;;;;;;5.57;81.54;100624.63;1730165;82;20964;-69
2021/11/03 21:58:17;;;;;;;50.08;17.50;;;;;;;5.53;81.55;100631.82;1716018;83;21841;-69
2021/11/03 22:00:44;;;;;;;46.20;18.75;;;;;;;5.51;81.55;100644.63;1715299;83;21004;-69
2021/11/03 22:03:10;;;;;;;35.05;17.17;;;;;;;5.46;81.54;100633.92;1751689;80;21036;-69
2021/11/03 22:05:37;;;;;;;74.12;19.10;;;;;;;5.46;81.62;100637.00;1677283;82;20968;-66
2021/11/03 22:08:05;;;;;;;66.12;19.50;;;;;;;5.45;81.61;100642.70;1772490;80;20960;-63
2021/11/03 22:10:33;;;;;;;65.47;22.55;;;;;;;5.43;81.68;100643.27;1752587;82;21776;-64
2021/11/03 22:13:00;;;;;;;112.70;22.52;;;;;;;5.44;81.69;100646.72;1752346;82;21055;-64
2021/11/03 22:15:27;;;;;;;73.33;18.62;;;;;;;5.43;81.74;100637.17;1723107;80;20945;-63
2021/11/03 22:17:53;;;;;;;66.20;17.07;;;;;;;5.43;81.82;100638.02;1726295;80;21014;-64
2021/11/03 22:20:23;;;;;;;55.50;17.90;;;;;;;5.43;81.84;100639.80;1768822;78;21037;-63
2021/11/03 22:22:51;;;;;;;45.92;17.45;;;;;;;5.41;81.94;100637.27;1771661;81;22512;-63
2021/11/03 22:25:18;;;;;;;42.53;15.43;;;;;;;5.42;81.97;100636.80;1771724;79;20950;-63
2021/11/03 22:27:45;;;;;;;62.53;17.05;;;;;;;5.41;81.98;100635.95;1765687;81;20978;-63
2021/11/03 22:30:14;;;;;;;81.45;17.27;;;;;;;5.39;81.98;100635.17;1755777;80;21025;-63
2021/11/03 22:32:42;;;;;;;78.92;18.27;;;;;;;5.37;82.00;100641.42;1777589;79;21492;-64
2021/11/03 22:35:10;;;;;;;48.30;17.75;;;;;;;5.36;82.08;100641.05;1782931;79;22716;-63
2021/11/03 22:37:37;;;;;;;45.92;17.32;;;;;;;5.35;82.09;100631.50;1815527;79;21432;-63
2021/11/03 22:40:10;;;;;;;72.17;17.57;;;;;;;5.35;82.12;100629.73;1811297;79;20953;-65
2021/11/03 22:42:38;;;;;;;85.00;18.25;;;;;;;5.35;82.13;100624.48;1745840;80;21012;-64
2021/11/03 22:45:06;;;;;;;90.25;17.85;;;;;;;5.36;82.12;100627.48;1774609;80;21487;-64
2021/11/03 22:47:34;;;;;;;113.72;17.90;;;;;;;5.34;82.14;100631.97;1759295;79;21854;-64
2021/11/03 22:50:01;;;;;;;138.22;17.90;;;;;;;5.25;82.42;100641.63;1802240;79;20975;-62
2021/11/03 22:52:29;;;;;;;86.12;16.20;;;;;;;5.23;82.46;100642.64;1802514;79;21338;-63
2021/11/03 22:54:56;;;;;;;109.78;17.87;;;;;;;5.20;82.47;100646.23;1802224;79;20955;-62
2021/11/03 22:57:22;;;;;;;109.05;17.48;;;;;;;5.14;82.42;100642.66;1802600;79;21058;-62
2021/11/03 22:59:49;;;;;;;93.22;17.48;;;;;;;5.09;82.46;100645.97;1769500;79;21833;-62
2021/11/03 23:02:15;;;;;;;88.95;16.75;;;;;;;5.05;82.44;100643.14;1716479;82;21408;-62
2021/11/03 23:04:42;;;;;;;108.55;17.85;;;;;;;5.01;82.44;100652.06;1665541;83;21418;-63
2021/11/03 23:07:08;;;;;;;130.75;17.32;;;;;;;4.96;82.44;100652.31;1736682;82;21427;-63
2021/11/03 23:09:36;;;;;;;150.60;18.95;;;;;;;4.92;82.47;100651.22;1735197;82;20953;-62
2021/11/03 23:12:04;;;;;;;86.75;17.50;;;;;;;4.86;82.45;100653.25;1735258;82;21813;-63
2021/11/03 23:14:31;;;;;;;134.03;19.25;;;;;;;4.81;82.54;100665.70;1735297;82;21163;-62
2021/11/03 23:16:58;;;;;;;110.48;18.37;;;;;;;4.80;82.58;100673.64;1714845;82;21104;-62
2021/11/03 23:19:25;;;;;;;98.92;19.12;;;;;;;4.78;82.61;100672.41;1716392;83;21503;-62
2021/11/03 23:21:51;;;;;;;115.47;19.17;;;;;;;4.77;82.66;100673.80;1716456;83;21020;-63
2021/11/03 23:24:18;;;;;;;144.20;18.70;;;;;;;4.77;82.72;100681.19;1724974;82;21837;-63
2021/11/03 23:26:45;;;;;;;92.50;18.67;;;;;;;4.78;82.78;100683.34;1714156;82;20950;-63
2021/11/03 23:29:11;;;;;;;90.60;17.27;;;;;;;4.79;82.79;100688.49;1733776;81;21060;-62
2021/11/03 23:31:37;;;;;;;106.90;17.70;;;;;;;4.79;82.79;100689.80;1722512;82;20965;-62
2021/11/03 23:34:04;;;;;;;93.90;19.02;;;;;;;4.79;82.77;100690.27;1710566;82;20989;-62
2021/11/03 23:36:30;;;;;;;93.97;18.30;;;;;;;4.76;82.75;100684.73;1724351;80;22501;-62
2021/11/03 23:38:57;;;;;;;93.80;18.42;;;;;;;4.75;82.77;100690.05;1734952;82;20993;-62
2021/11/03 23:41:24;;;;;;;80.67;18.27;;;;;;;4.76;82.81;100691.73;1710655;84;21540;-63
2021/11/03 23:43:52;;;;;;;111.20;19.95;;;;;;;4.76;82.79;100689.97;1691178;83;21069;-63
2021/11/03 23:46:20;;;;;;;83.03;18.77;;;;;;;4.78;82.84;100687.27;1773051;79;20954;-62
2021/11/03 23:48:47;;;;;;;90.20;19.27;;;;;;;4.80;82.92;100692.80;1777042;80;21859;-62
2021/11/03 23:51:14;;;;;;;106.52;20.00;;;;;;;4.83;82.89;100699.67;1757140;80;20980;-62
2021/11/03 23:53:40;;;;;;;78.78;19.35;;;;;;;4.86;82.95;100705.59;1752500;82;21098;-63
2021/11/03 23:56:07;;;;;;;84.92;20.77;;;;;;;4.88;82.95;100699.81;1721037;80;21027;-63
2021/11/03 23:58:34;;;;;;;74.10;18.55;;;;;;;4.90;82.91;100711.50;1730293;81;21031;-63
